Time;durP1;ratioP1;P1;durP2;ratioP2;P2;SDS_P1;SDS_P2;PMS_P1;PMS_P2;Temp;Humidity;BMP_temperature;BMP_pressure;BME280_temperature;BME280_humidity;BME280_pressure;Samples;Min_cycle;Max_cycle;Signal;HPM_P1;HPM_P2
2022/10/14 00:01:48;;;;;;;34.28;19.65;;;;;;;;;;4993283;28;20291;-65
2022/10/14 00:04:13;;;;;;;40.37;20.33;;;;;;;;;;4992587;28;20383;-65
2022/10/14 00:06:39;;;;;;;39.28;20.77;;;;;;;;;;4991200;28;20298;-65
2022/10/14 00:09:06;;;;;;;34.60;19.67;;;;;;;;;;4993031;28;20040;-65
2022/10/14 00:11:32;;;;;;;38.55;20.23;;;;;;;;;;4993390;28;20049;-64
2022/10/14 00:13:59;;;;;;;32.17;18.85;;;;;;;;;;4993453;28;20022;-65
2022/10/14 00:16:29;;;;;;;38.75;20.50;;;;;;;;;;4992486;28;20046;-66
2022/10/14 00:18:55;;;;;;;31.92;19.17;;;;;;;;;;4992416;28;20026;-65
2022/10/14 00:21:20;;;;;;;36.25;19.23;;;;;;;;;;4993732;28;20084;-65
2022/10/14 00:23:45;;;;;;;39.77;20.70;;;;;;;;;;4993040;28;20034;-65
2022/10/14 00:26:16;;;;;;;33.80;19.27;;;;;;;;;;4993925;28;20439;-65
2022/10/14 00:28:41;;;;;;;40.13;19.73;;;;;;;;;;4991954;28;21312;-65
2022/10/14 00:31:06;;;;;;;33.67;19.00;;;;;;;;;;4989415;28;20030;-65
2022/10/14 00:33:31;;;;;;;35.43;19.90;;;;;;;;;;4994034;28;20704;-65
2022/10/14 00:35:57;;;;;;;38.10;18.70;;;;;;;;;;4990021;28;20063;-65
2022/10/14 00:38:22;;;;;;;34.97;20.13;;;;;;;;;;4989466;28;20037;-63
2022/10/14 00:40:48;;;;;;;33.47;19.23;;;;;;;;;;4992064;28;20041;-65
2022/10/14 00:43:13;;;;;;;34.88;19.02;;;;;;;;;;4995957;28;20069;-65
2022/10/14 00:45:38;;;;;;;32.70;18.10;;;;;;;;;;4990274;28;20110;-66
2022/10/14 00:48:04;;;;;;;33.78;18.17;;;;;;;;;;4993235;28;20765;-66
2022/10/14 00:50:29;;;;;;;31.42;17.70;;;;;;;;;;4991271;28;20049;-64
2022/10/14 00:52:55;;;;;;;32.63;18.13;;;;;;;;;;4993079;28;20421;-65
2022/10/14 00:55:20;;;;;;;33.75;18.48;;;;;;;;;;4990508;28;20295;-65
2022/10/14 00:57:45;;;;;;;31.03;17.83;;;;;;;;;;5007343;28;20027;-65
2022/10/14 01:00:12;;;;;;;34.80;18.70;;;;;;;;;;4991036;28;20391;-66
2022/10/14 01:02:38;;;;;;;30.95;18.42;;;;;;;;;;4991079;28;20088;-64
2022/10/14 01:05:04;;;;;;;32.92;18.05;;;;;;;;;;4991849;28;20407;-67
2022/10/14 01:07:33;;;;;;;33.55;18.63;;;;;;;;;;4990025;28;20064;-66
2022/10/14 01:10:01;;;;;;;36.20;18.65;;;;;;;;;;4989689;28;20247;-66
2022/10/14 01:12:33;;;;;;;36.33;18.15;;;;;;;;;;4994457;28;20392;-66
2022/10/14 01:15:03;;;;;;;37.83;18.50;;;;;;;;;;4988971;28;20069;-66
2022/10/14 01:17:38;;;;;;;32.00;18.67;;;;;;;;;;4991896;28;20096;-64
2022/10/14 01:20:10;;;;;;;34.60;18.83;;;;;;;;;;4987508;28;20049;-65
2022/10/14 01:22:54;;;;;;;34.80;19.30;;;;;;;;;;4993413;28;20102;-65
2022/10/14 01:25:19;;;;;;;34.78;17.73;;;;;;;;;;4992480;28;20026;-65
2022/10/14 01:27:45;;;;;;;36.53;18.27;;;;;;;;;;4992787;28;20052;-65
2022/10/14 01:30:18;;;;;;;34.70;18.77;;;;;;;;;;4989110;28;20288;-65
2022/10/14 01:32:49;;;;;;;33.58;18.95;;;;;;;;;;4990173;28;20034;-67
2022/10/14 01:35:20;;;;;;;32.38;17.75;;;;;;;;;;4991784;28;20396;-65
2022/10/14 01:37:52;;;;;;;33.13;18.92;;;;;;;;;;4991737;28;20122;-65
2022/10/14 01:40:25;;;;;;;35.75;19.05;;;;;;;;;;4989763;28;20508;-64
2022/10/14 01:42:51;;;;;;;33.38;17.08;;;;;;;;;;4989568;28;20042;-65
2022/10/14 01:45:19;;;;;;;34.13;18.33;;;;;;;;;;4991544;28;20026;-66
2022/10/14 01:47:47;;;;;;;41.05;19.90;;;;;;;;;;4990462;28;20022;-66
2022/10/14 01:50:14;;;;;;;38.67;20.00;;;;;;;;;;4989664;28;20396;-65
2022/10/14 01:52:45;;;;;;;40.28;20.17;;;;;;;;;;5002169;28;20026;-64
2022/10/14 01:55:14;;;;;;;37.17;19.55;;;;;;;;;;4992280;28;20031;-65
2022/10/14 01:57:40;;;;;;;37.85;20.88;;;;;;;;;;4991141;28;20153;-64
2022/10/14 02:00:06;;;;;;;39.25;19.63;;;;;;;;;;4991328;28;20034;-63
2022/10/14 02:02:34;;;;;;;37.20;20.23;;;;;;;;;;4989823;28;20021;-65
2022/10/14 02:04:59;;;;;;;36.83;19.63;;;;;;;;;;4989372;28;20018;-64
2022/10/14 02:07:28;;;;;;;35.83;21.00;;;;;;;;;;4986684;28;20073;-64
2022/10/14 02:09:53;;;;;;;35.80;20.15;;;;;;;;;;4993200;28;20359;-64
2022/10/14 02:12:37;;;;;;;40.17;18.45;;;;;;;;;;4991349;28;20112;-65
2022/10/14 02:15:21;;;;;;;33.05;18.88;;;;;;;;;;4986159;28;20041;-66
2022/10/14 02:17:55;;;;;;;32.47;18.67;;;;;;;;;;4988502;28;20385;-65
2022/10/14 02:20:21;;;;;;;35.83;20.13;;;;;;;;;;4990283;28;20477;-64
2022/10/14 02:22:50;;;;;;;39.27;19.83;;;;;;;;;;4991166;28;20038;-64
2022/10/14 02:25:15;;;;;;;;;;;;;;;;;;4989891;28;20388;-64
2022/10/14 02:27:42;;;;;;;40.95;21.00;;;;;;;;;;4990403;28;19924;-66
2022/10/14 02:30:08;;;;;;;42.78;22.73;;;;;;;;;;4990392;28;20108;-65
2022/10/14 02:32:34;;;;;;;41.05;22.02;;;;;;;;;;4988263;28;20065;-65
2022/10/14 02:35:00;;;;;;;45.28;22.25;;;;;;;;;;4990013;28;20041;-65
2022/10/14 02:37:26;;;;;;;41.55;22.58;;;;;;;;;;4991080;28;20030;-64
2022/10/14 02:39:57;;;;;;;39.20;21.25;;;;;;;;;;4992006;28;20154;-64
2022/10/14 02:42:22;;;;;;;35.20;20.17;;;;;;;;;;4989527;28;20037;-63
2022/10/14 02:44:55;;;;;;;41.88;21.45;;;;;;;;;;5004775;28;20030;-65
2022/10/14 02:47:21;;;;;;;41.90;20.20;;;;;;;;;;4989386;28;20033;-62
2022/10/14 02:49:46;;;;;;;36.05;20.23;;;;;;;;;;4991778;28;20057;-64
2022/10/14 02:52:12;;;;;;;33.77;19.40;;;;;;;;;;4989936;28;20081;-65
2022/10/14 02:54:37;;;;;;;33.08;18.70;;;;;;;;;;4990498;28;20476;-64
2022/10/14 02:57:02;;;;;;;33.13;18.57;;;;;;;;;;4988899;28;20070;-63
2022/10/14 02:59:28;;;;;;;35.53;18.77;;;;;;;;;;4990447;28;20065;-64
2022/10/14 03:01:53;;;;;;;33.87;18.20;;;;;;;;;;4989170;28;20761;-66
2022/10/14 03:04:18;;;;;;;30.77;18.20;;;;;;;;;;4988722;28;20072;-64
2022/10/14 03:06:43;;;;;;;32.83;18.77;;;;;;;;;;5004923;28;20346;-63
2022/10/14 03:09:08;;;;;;;30.55;17.55;;;;;;;;;;4993745;28;20038;-64
2022/10/14 03:11:34;;;;;;;34.30;18.90;;;;;;;;;;4991402;28;20037;-66
2022/10/14 03:13:59;;;;;;;39.80;18.50;;;;;;;;;;4989818;28;20319;-65
2022/10/14 03:16:24;;;;;;;34.53;19.08;;;;;;;;;;4990234;28;20635;-63
2022/10/14 03:18:50;;;;;;;38.53;19.38;;;;;;;;;;5006026;28;20451;-65
2022/10/14 03:21:15;;;;;;;36.07;18.80;;;;;;;;;;4988266;28;20026;-65
2022/10/14 03:23:40;;;;;;;37.13;18.57;;;;;;;;;;4993012;28;20030;-64
2022/10/14 03:26:05;;;;;;;34.47;17.50;;;;;;;;;;4989068;28;20034;-62
2022/10/14 03:28:30;;;;;;;32.13;17.63;;;;;;;;;;4989145;28;20073;-63
2022/10/14 03:30:56;;;;;;;37.43;19.33;;;;;;;;;;4990078;28;20981;-65
2022/10/14 03:33:21;;;;;;;31.37;17.83;;;;;;;;;;4989156;28;20034;-63
2022/10/14 03:35:46;;;;;;;35.60;18.43;;;;;;;;;;4988970;28;20404;-65
2022/10/14 03:38:11;;;;;;;31.50;18.33;;;;;;;;;;4990239;28;20373;-62
2022/10/14 03:40:37;;;;;;;34.03;20.00;;;;;;;;;;4989907;28;20486;-64
2022/10/14 03:43:02;;;;;;;39.17;18.83;;;;;;;;;;4991863;28;20753;-64
2022/10/14 03:45:27;;;;;;;34.45;17.95;;;;;;;;;;4993132;28;20314;-63
2022/10/14 03:47:53;;;;;;;33.17;18.65;;;;;;;;;;4994416;28;20030;-62
2022/10/14 03:50:18;;;;;;;33.53;18.52;;;;;;;;;;4992301;28;20034;-65
2022/10/14 03:52:44;;;;;;;36.93;18.70;;;;;;;9.45;nan;100884.88;4995479;28;20032;-63
2022/10/14 03:55:09;;;;;;;29.63;17.27;;;;;;;;;;4992661;28;20288;-65
2022/10/14 03:57:34;;;;;;;32.58;17.48;;;;;;;;;;5008859;28;20033;-66
2022/10/14 04:00:00;;;;;;;33.93;16.63;;;;;;;;;;4993867;28;20046;-62
2022/10/14 04:02:25;;;;;;;29.87;17.00;;;;;;;;;;4973877;28;20049;-64
2022/10/14 04:04:50;;;;;;;33.13;18.23;;;;;;;;;;4990890;28;20623;-63
2022/10/14 04:07:15;;;;;;;68.38;39.65;;;;;;;;;;4987287;28;20338;-65
2022/10/14 04:09:41;;;;;;;76.30;40.33;;;;;;;;;;4993172;28;20034;-64
2022/10/14 04:12:06;;;;;;;42.63;22.40;;;;;;;;;;4993057;28;20089;-62
2022/10/14 04:14:31;;;;;;;31.58;18.60;;;;;;;;;;4992092;28;20030;-64
2022/10/14 04:16:56;;;;;;;28.03;16.90;;;;;;;;;;4993744;28;20074;-65
2022/10/14 04:19:23;;;;;;;30.60;16.27;;;;;;;;;;4993749;28;20310;-65
2022/10/14 04:21:48;;;;;;;30.27;16.45;;;;;;;;;;4992461;28;20034;-67
2022/10/14 04:24:14;;;;;;;31.10;17.20;;;;;;;;;;4993723;28;20081;-66
2022/10/14 04:26:39;;;;;;;28.17;15.00;;;;;;;;;;4993904;28;20272;-65
2022/10/14 04:29:05;;;;;;;26.73;15.43;;;;;;;;;;4991128;28;20077;-64
2022/10/14 04:31:30;;;;;;;31.97;16.40;;;;;;;;;;4989986;28;20069;-69
2022/10/14 04:33:55;;;;;;;31.43;15.80;;;;;;;;;;4990419;28;20038;-69
2022/10/14 04:36:20;;;;;;;26.70;15.47;;;;;;;;;;4991198;28;20373;-68
2022/10/14 04:38:45;;;;;;;34.63;16.03;;;;;;;;;;4993746;28;20268;-67
2022/10/14 04:41:11;;;;;;;24.87;14.63;;;;;;;;;;4992135;28;20034;-70
2022/10/14 04:43:36;;;;;;;26.53;15.30;;;;;;;;;;4992367;28;20315;-67
2022/10/14 04:46:01;;;;;;;27.60;15.50;;;;;;;;;;4990951;28;20025;-65
2022/10/14 04:48:26;;;;;;;25.47;14.83;;;;;;;;;;4987879;28;20037;-66
2022/10/14 04:50:52;;;;;;;25.63;14.40;;;;;;;;;;4994088;28;20284;-66
2022/10/14 04:53:18;;;;;;;26.45;15.27;;;;;;;;;;4990989;28;20030;-66
2022/10/14 04:55:44;;;;;;;26.77;14.43;;;;;;;;;;4988803;28;20026;-66
2022/10/14 04:58:10;;;;;;;31.73;14.25;;;;;;;;;;5007966;28;20402;-68
2022/10/14 05:00:35;;;;;;;24.65;12.65;;;;;;;;;;4989429;28;20121;-67
2022/10/14 05:03:03;;;;;;;23.75;13.90;;;;;;;;;;4987599;28;21471;-68
2022/10/14 05:05:28;;;;;;;23.00;13.77;;;;;;;;;;5006512;28;20026;-67
2022/10/14 05:07:53;;;;;;;21.40;12.77;;;;;;;;;;4991605;28;20034;-67
2022/10/14 05:10:18;;;;;;;22.15;13.38;;;;;;;;;;4990566;28;20796;-68
2022/10/14 05:12:44;;;;;;;26.00;13.57;;;;;;;;;;4987965;28;20034;-66
2022/10/14 05:15:10;;;;;;;25.07;14.10;;;;;;;;;;5006454;28;20331;-66
2022/10/14 05:17:36;;;;;;;25.58;14.02;;;;;;;;;;4992362;28;20658;-69
2022/10/14 05:20:02;;;;;;;32.05;14.90;;;;;;;;;;4992476;28;20022;-67
2022/10/14 05:22:27;;;;;;;29.67;16.13;;;;;;;;;;4989169;28;20042;-68
2022/10/14 05:24:52;;;;;;;26.03;14.87;;;;;;;;;;4990676;28;20019;-69
2022/10/14 05:27:18;;;;;;;27.57;15.00;;;;;;;;;;4988739;28;20291;-68
2022/10/14 05:29:43;;;;;;;26.38;14.13;;;;;;;;;;4988065;28;20294;-68
2022/10/14 05:32:08;;;;;;;24.10;12.93;;;;;;;;;;4987368;28;20037;-68
2022/10/14 05:34:34;;;;;;;29.85;14.15;;;;;;;;;;4991181;28;20109;-67
2022/10/14 05:36:59;;;;;;;20.88;12.63;;;;;;;;;;5004850;28;20042;-68
2022/10/14 05:39:25;;;;;;;25.70;13.88;;;;;;;;;;4992348;28;20084;-67
2022/10/14 05:41:50;;;;;;;29.20;14.07;;;;;;;;;;4990459;28;20034;-67
2022/10/14 05:44:15;;;;;;;27.13;13.93;;;;;;;;;;4989696;28;20081;-68
2022/10/14 05:46:40;;;;;;;45.67;22.37;;;;;;;;;;4991208;28;20030;-68
2022/10/14 05:49:06;;;;;;;99.20;37.57;;;;;;;;;;4988853;28;22038;-69
2022/10/14 05:51:32;;;;;;;112.65;43.28;;;;;;;;;;5001647;28;20027;-68
2022/10/14 05:53:57;;;;;;;105.53;38.03;;;;;;;;;;4990527;28;20061;-68
2022/10/14 05:56:23;;;;;;;53.95;23.83;;;;;;;;;;4990503;28;20209;-67
2022/10/14 05:58:48;;;;;;;45.13;20.85;;;;;;;;;;4989988;28;20084;-67
2022/10/14 06:01:13;;;;;;;36.63;18.33;;;;;;;;;;4990851;28;20437;-68
2022/10/14 06:03:39;;;;;;;33.63;15.68;;;;;;;;;;4992103;28;20034;-68
2022/10/14 06:06:04;;;;;;;35.35;14.18;;;;;;;;;;4990148;28;20030;-69
2022/10/14 06:08:29;;;;;;;29.55;15.60;;;;;;;;;;5005255;28;20120;-68
2022/10/14 06:10:54;;;;;;;27.87;14.73;;;;;;;;;;4992411;28;20018;-68
2022/10/14 06:13:20;;;;;;;30.98;15.82;;;;;;;;;;5006643;28;20275;-68
2022/10/14 06:15:46;;;;;;;29.88;14.57;;;;;;;;;;4991202;28;20488;-68
2022/10/14 06:18:11;;;;;;;30.38;15.18;;;;;;;;;;4991967;28;20072;-69
2022/10/14 06:20:36;;;;;;;32.30;15.70;;;;;;;;;;4992290;28;20030;-68
2022/10/14 06:23:01;;;;;;;33.25;16.42;;;;;;;;;;4990507;28;20041;-69
2022/10/14 06:25:27;;;;;;;37.97;17.43;;;;;;;;;;4991520;28;20023;-68
2022/10/14 06:27:53;;;;;;;33.92;17.08;;;;;;;;;;4988159;28;20323;-69
2022/10/14 06:30:18;;;;;;;29.97;16.50;;;;;;;;;;5006848;28;20030;-68
2022/10/14 06:32:43;;;;;;;37.60;16.23;;;;;;;;;;4981789;28;20285;-69
2022/10/14 06:35:08;;;;;;;30.65;16.60;;;;;;;;;;4988563;28;20038;-68
2022/10/14 06:37:34;;;;;;;35.10;16.00;;;;;;;;;;4990031;28;20042;-68
2022/10/14 06:39:59;;;;;;;32.72;16.80;;;;;;;;;;4990713;28;20027;-65
2022/10/14 06:42:24;;;;;;;33.15;16.35;;;;;;;;;;4987765;28;20030;-66
2022/10/14 06:44:50;;;;;;;33.08;15.77;;;;;;;;;;4989445;28;20022;-64
2022/10/14 06:47:15;;;;;;;30.35;15.85;;;;;;;;;;4991237;28;20026;-66
2022/10/14 06:49:40;;;;;;;31.60;15.60;;;;;;;;;;4991762;28;20026;-64
2022/10/14 06:52:05;;;;;;;33.00;16.33;;;;;;;;;;4988638;28;20302;-66
2022/10/14 06:54:31;;;;;;;30.53;16.33;;;;;;;;;;4988236;28;20039;-67
2022/10/14 06:56:56;;;;;;;32.58;16.05;;;;;;;;;;4989653;28;20276;-65
2022/10/14 06:59:21;;;;;;;32.50;16.93;;;;;;;;;;4990263;28;20099;-68
2022/10/14 07:01:46;;;;;;;33.97;16.57;;;;;;;;;;4988881;28;20133;-67
2022/10/14 07:04:12;;;;;;;39.95;17.33;;;;;;;;;;4991341;28;20260;-67
2022/10/14 07:06:37;;;;;;;40.25;18.65;;;;;;;;;;4987144;28;20121;-66
2022/10/14 07:09:03;;;;;;;44.80;18.27;;;;;;;;;;4991701;28;20057;-67
2022/10/14 07:11:28;;;;;;;45.08;19.35;;;;;;;;;;4991181;28;20287;-67
2022/10/14 07:13:54;;;;;;;44.60;19.77;;;;;;;;;;4990260;28;20388;-68
2022/10/14 07:16:19;;;;;;;47.53;21.00;;;;;;;;;;4989164;28;20303;-68
2022/10/14 07:18:45;;;;;;;57.63;22.47;;;;;;;;;;4994107;28;20030;-68
2022/10/14 07:21:10;;;;;;;58.63;21.73;;;;;;;;;;4993189;28;21203;-68
2022/10/14 07:23:35;;;;;;;48.90;19.95;;;;;;;;;;4995235;28;20022;-67
2022/10/14 07:26:01;;;;;;;50.23;21.77;;;;;;;;;;4992366;28;20029;-70
2022/10/14 07:28:26;;;;;;;52.70;21.30;;;;;;;;;;4994534;28;21563;-71
2022/10/14 07:30:58;;;;;;;61.43;23.80;;;;;;;;;;4994276;28;20033;-70
2022/10/14 07:33:23;;;;;;;57.08;23.70;;;;;;;;;;4991966;28;20367;-70
2022/10/14 07:35:48;;;;;;;51.60;22.08;;;;;;;;;;4993356;28;20169;-69
2022/10/14 07:38:14;;;;;;;58.83;23.30;;;;;;;;;;4990816;28;20026;-67
2022/10/14 07:40:39;;;;;;;50.33;21.30;;;;;;;;;;5006957;28;20045;-68
2022/10/14 07:43:04;;;;;;;44.53;21.40;;;;;;;;;;4994552;28;20038;-68
2022/10/14 07:45:34;;;;;;;44.97;21.53;;;;;;;;;;4992748;28;20677;-68
2022/10/14 07:47:59;;;;;;;44.65;22.05;;;;;;;;;;5008623;28;20869;-68
2022/10/14 07:50:24;;;;;;;50.37;22.50;;;;;;;;;;4993143;28;20070;-67
2022/10/14 07:52:49;;;;;;;51.00;22.13;;;;;;;;;;4994469;28;20077;-67
2022/10/14 07:55:15;;;;;;;53.03;21.67;;;;;;;;;;4993570;28;20465;-67
2022/10/14 07:57:40;;;;;;;42.47;21.53;;;;;;;;;;4993758;28;20052;-67
2022/10/14 08:00:06;;;;;;;51.30;22.23;;;;;;;;;;4993435;28;20280;-66
2022/10/14 08:02:31;;;;;;;46.42;22.15;;;;;;;;;;4994870;28;20362;-67
2022/10/14 08:04:57;;;;;;;43.90;21.57;;;;;;;;;;4992846;28;20491;-66
2022/10/14 08:07:24;;;;;;;44.08;20.25;;;;;;;;;;4990706;28;20288;-68
2022/10/14 08:09:49;;;;;;;42.08;21.40;;;;;;;;;;4993664;28;20034;-67
2022/10/14 08:12:14;;;;;;;38.73;20.27;;;;;;;;;;4993917;28;20088;-64
2022/10/14 08:14:39;;;;;;;36.10;18.90;;;;;;;;;;4992848;28;20027;-66
2022/10/14 08:17:05;;;;;;;34.00;18.33;;;;;;;;;;4994763;28;20291;-67
2022/10/14 08:19:30;;;;;;;34.70;18.50;;;;;;;;;;4997184;28;20034;-66
2022/10/14 08:21:55;;;;;;;35.28;19.70;;;;;;;;;;4993213;28;20030;-65
2022/10/14 08:24:20;;;;;;;43.67;19.73;;;;;;;;;;4988628;28;20054;-66
2022/10/14 08:26:50;;;;;;;44.53;20.83;;;;;;;;;;4989372;28;20050;-66
2022/10/14 08:29:16;;;;;;;42.80;21.17;;;;;;;;;;4991943;28;20040;-66
2022/10/14 08:31:41;;;;;;;47.10;21.25;;;;;;;;;;4993142;28;20117;-66
2022/10/14 08:34:06;;;;;;;43.60;21.87;;;;;;;;;;4993687;28;20037;-66
2022/10/14 08:36:31;;;;;;;38.73;20.80;;;;;;;;;;4993308;28;20018;-65
2022/10/14 08:38:57;;;;;;;40.67;21.60;;;;;;;;;;4993646;28;20030;-66
2022/10/14 08:41:36;;;;;;;40.90;21.40;;;;;;;;;;4993497;28;20042;-67
2022/10/14 08:44:21;;;;;;;38.75;19.52;;;;;;;;;;4989668;28;20026;-66
2022/10/14 08:46:54;;;;;;;43.67;20.10;;;;;;;;;;4993805;28;20014;-68
2022/10/14 08:49:26;;;;;;;40.20;18.90;;;;;;;;;;4993077;28;20116;-67
2022/10/14 08:52:11;;;;;;;36.95;19.90;;;;;;;;;;4992407;28;20032;-67
2022/10/14 08:54:39;;;;;;;41.22;19.48;;;;;;;;;;4993086;28;20026;-66
2022/10/14 08:57:10;;;;;;;41.25;19.98;;;;;;;;;;4993196;28;20026;-66
2022/10/14 08:59:37;;;;;;;34.63;19.20;;;;;;;;;;4993779;28;20026;-66
2022/10/14 09:02:12;;;;;;;38.42;20.30;;;;;;;;;;4992736;28;20085;-64
2022/10/14 09:04:37;;;;;;;44.10;19.65;;;;;;;;;;4993445;28;20030;-66
2022/10/14 09:07:03;;;;;;;38.25;19.60;;;;;;;;;;4988455;28;20038;-66
2022/10/14 09:09:42;;;;;;;32.55;18.33;;;;;;;;;;4993091;28;20061;-65
2022/10/14 09:12:12;;;;;;;31.33;17.13;;;;;;;;;;4992790;28;20030;-65
2022/10/14 09:14:43;;;;;;;29.27;15.38;;;;;;;13.82;nan;100943.97;4990953;28;20818;-67
2022/10/14 09:17:20;;;;;;;29.17;16.50;;;;;;;;;;4990949;28;20077;-65
2022/10/14 09:19:49;;;;;;;29.40;15.95;;;;;;;;;;4997438;28;20113;-65
2022/10/14 09:22:14;;;;;;;29.50;16.50;;;;;;;;;;5004652;28;20499;-64
2022/10/14 09:24:40;;;;;;;33.50;16.77;;;;;;;;;;4992594;28;20022;-66
2022/10/14 09:27:10;;;;;;;27.75;15.55;;;;;;;;;;4992929;28;20301;-66
2022/10/14 09:29:44;;;;;;;27.00;15.40;;;;;;;;;;4987954;28;20030;-65
2022/10/14 09:32:15;;;;;;;29.60;15.20;;;;;;;;;;4991066;28;20034;-66
2022/10/14 09:34:43;;;;;;;24.25;15.00;;;;;;;;;;4991401;28;20100;-66
2022/10/14 09:37:09;;;;;;;28.73;16.42;;;;;;;;;;4992751;28;20103;-65
2022/10/14 09:39:36;;;;;;;25.63;15.17;;;;;;;;;;4989143;28;20026;-66
2022/10/14 09:42:02;;;;;;;23.25;14.55;;;;;;;14.65;nan;100946.34;4991728;28;20089;-66
2022/10/14 09:44:27;;;;;;;28.08;16.45;;;;;;;;;;4993261;28;20030;-67
2022/10/14 09:47:02;;;;;;;25.67;14.47;;;;;;;;;;5005154;28;20038;-69
2022/10/14 09:49:39;;;;;;;29.00;13.75;;;;;;;14.96;nan;100876.06;4992047;28;20185;-67
2022/10/14 09:52:06;;;;;;;31.58;15.10;;;;;;;;;;4991815;28;20030;-67
2022/10/14 09:54:32;;;;;;;22.65;13.43;;;;;;;;;;4990598;28;20026;-67
2022/10/14 09:56:58;;;;;;;25.55;14.38;;;;;;;;;;4990879;28;20033;-66
2022/10/14 09:59:23;;;;;;;25.08;13.68;;;;;;;;;;4992729;28;20473;-68
2022/10/14 10:01:50;;;;;;;21.20;13.15;;;;;;;;;;4992085;28;20044;-68
2022/10/14 10:04:34;;;;;;;25.23;12.75;;;;;;;;;;5005519;28;20081;-67
2022/10/14 10:07:01;;;;;;;23.00;12.40;;;;;;;;;;4986746;28;20033;-68
2022/10/14 10:09:26;;;;;;;21.95;12.32;;;;;;;;;;4992180;28;20110;-67
2022/10/14 10:11:52;;;;;;;23.13;11.60;;;;;;;;;;4990850;28;20117;-67
2022/10/14 10:14:24;;;;;;;21.00;11.15;;;;;;;;;;4993793;28;20296;-68
2022/10/14 10:16:50;;;;;;;19.52;12.55;;;;;;;;;;4989119;28;20050;-67
2022/10/14 10:19:36;;;;;;;16.88;11.23;;;;;;;;;;4992111;28;20034;-68
2022/10/14 10:22:13;;;;;;;16.45;11.02;;;;;;;;;;4986800;28;20038;-67
2022/10/14 10:24:39;;;;;;;20.90;11.25;;;;;;;;;;4989072;28;20030;-68
2022/10/14 10:27:23;;;;;;;16.13;10.30;;;;;;;16.31;nan;100866.91;4992138;28;20045;-68
2022/10/14 10:29:49;;;;;;;19.48;10.93;;;;;;;;;;4988567;28;20022;-68
2022/10/14 10:32:14;;;;;;;19.20;10.73;;;;;;;;;;4990242;28;20077;-66
2022/10/14 10:35:11;;;;;;;22.37;10.33;;;;;;;;;;4987572;28;20034;-68
2022/10/14 10:37:47;;;;;;;16.00;10.52;;;;;;;;;;4979819;28;20399;-67
2022/10/14 10:40:15;;;;;;;15.73;9.70;;;;;;;;;;4991903;28;20073;-67
2022/10/14 10:42:43;;;;;;;17.02;10.40;;;;;;;;;;4991456;28;20101;-68
2022/10/14 10:45:20;;;;;;;17.10;10.75;;;;;;;;;;4991261;28;20030;-68
2022/10/14 10:48:00;;;;;;;16.85;10.68;;;;;;;;;;4987711;28;20061;-67
2022/10/14 10:50:44;;;;;;;16.27;9.73;;;;;;;;;;4991536;28;20026;-67
2022/10/14 10:53:28;;;;;;;18.73;10.05;;;;;;;;;;4996949;28;20026;-67
2022/10/14 10:56:03;;;;;;;19.85;10.27;;;;;;;;;;4998364;28;20025;-68
2022/10/14 10:58:37;;;;;;;17.20;10.52;;;;;;;;;;4999073;28;20026;-66
2022/10/14 11:01:15;;;;;;;14.27;9.93;;;;;;;;;;4997909;28;20030;-67
2022/10/14 11:03:53;;;;;;;17.17;10.57;;;;;;;;;;4993573;28;20019;-68
2022/10/14 11:12:01;;;;;;;15.27;10.23;;;;;;;;;;4997862;28;20137;-67
2022/10/14 11:12:11;;;;;;;18.65;10.13;;;;;;;;;;4998317;28;20041;-67
2022/10/14 11:14:39;;;;;;;18.30;9.65;;;;;;;;;;4996424;28;20080;-67
2022/10/14 11:17:17;;;;;;;18.08;10.32;;;;;;;;;;4997705;28;20169;-67
2022/10/14 11:20:00;;;;;;;17.13;10.10;;;;;;;;;;4994877;28;20041;-67
2022/10/14 11:22:27;;;;;;;14.52;10.23;;;;;;;;;;4995449;28;20030;-67
2022/10/14 11:24:53;;;;;;;13.85;9.50;;;;;;;;;;4996485;28;20018;-67
2022/10/14 11:27:41;;;;;;;16.27;9.60;;;;;;;;;;5010037;28;20121;-67
2022/10/14 11:30:12;;;;;;;13.25;9.57;;;;;;;;;;4986030;28;20073;-68
2022/10/14 11:32:41;;;;;;;14.75;9.90;;;;;;;;;;4989889;28;20026;-67
2022/10/14 11:35:12;;;;;;;15.45;8.82;;;;;;;;;;5005949;28;20111;-68
2022/10/14 11:38:18;;;;;;;16.02;9.80;;;;;;;18.64;nan;100782.13;4993774;28;20026;-69
2022/10/14 11:40:50;;;;;;;18.85;10.40;;;;;;;;;;4972601;28;20069;-68
2022/10/14 11:43:26;;;;;;;19.98;10.57;;;;;;;18.69;nan;100768.78;4959152;28;20022;-68
2022/10/14 11:46:09;;;;;;;14.73;9.27;;;;;;;;;;4974997;28;20408;-68
2022/10/14 11:48:44;;;;;;;14.13;9.80;;;;;;;18.76;nan;100779.22;4962712;28;20061;-68
2022/10/14 11:51:31;;;;;;;13.57;9.10;;;;;;;18.79;nan;100784.00;4974936;28;20037;-67
2022/10/14 11:54:02;;;;;;;12.32;9.18;;;;;;;;;;4975236;28;20027;-69
2022/10/14 11:56:33;;;;;;;15.63;9.52;;;;;;;;;;4975359;28;20030;-68
2022/10/14 11:59:21;;;;;;;11.52;8.48;;;;;;;18.79;nan;100749.31;4975386;28;20150;-69
2022/10/14 12:01:47;;;;;;;12.63;8.45;;;;;;;;;;4970913;28;20030;-68
2022/10/14 12:04:26;;;;;;;12.13;9.15;;;;;;;19.00;nan;100775.97;4973705;28;20203;-68
2022/10/14 12:07:08;;;;;;;19.02;9.27;;;;;;;19.06;nan;100772.22;4956023;28;20138;-67
2022/10/14 12:09:52;;;;;;;15.07;8.40;;;;;;;19.11;nan;100764.19;4972014;28;20540;-67
2022/10/14 12:12:21;;;;;;;12.43;8.15;;;;;;;19.20;nan;100761.72;4986655;28;20121;-68
2022/10/14 12:15:00;;;;;;;17.53;9.27;;;;;;;19.19;nan;100749.47;4993936;28;20070;-67
2022/10/14 12:17:39;;;;;;;11.18;8.02;;;;;;;19.23;nan;100762.00;4997273;28;20295;-68
2022/10/14 12:20:16;;;;;;;13.82;8.95;;;;;;;19.21;nan;100763.34;4991366;28;20158;-68
2022/10/14 12:22:42;;;;;;;16.88;8.55;;;;;;;;;;4991562;28;20026;-67
2022/10/14 12:25:16;;;;;;;10.90;7.90;;;;;;;19.26;nan;100737.41;4993632;28;20027;-67
2022/10/14 12:27:41;;;;;;;12.60;8.05;;;;;;;19.29;nan;100710.16;4993872;28;20033;-68
2022/10/14 12:30:30;;;;;;;15.23;8.48;;;;;;;19.39;nan;100756.56;4992106;28;20018;-68
2022/10/14 12:33:16;;;;;;;15.60;8.20;;;;;;;19.48;nan;100733.56;5008047;28;20107;-68
2022/10/14 12:35:58;;;;;;;14.52;8.10;;;;;;;19.60;nan;100731.34;4993433;28;20039;-68
2022/10/14 12:38:25;;;;;;;11.82;7.90;;;;;;;19.54;nan;100735.94;4992552;28;20026;-68
2022/10/14 12:40:50;;;;;;;11.07;7.68;;;;;;;19.59;nan;100728.97;5008175;28;20096;-68
2022/10/14 12:43:26;;;;;;;15.93;8.27;;;;;;;19.55;nan;100720.69;4993435;28;20555;-67
2022/10/14 12:46:02;;;;;;;14.32;8.82;;;;;;;19.50;nan;100728.75;4990295;28;20049;-69
2022/10/14 12:48:31;;;;;;;14.55;8.27;;;;;;;19.49;nan;100725.28;4994440;28;20392;-68
2022/10/14 12:51:06;;;;;;;;;;;;;;;19.53;nan;100722.84;4988704;28;20027;-67
2022/10/14 12:53:33;;;;;;;13.57;8.38;;;;;;;19.48;nan;100715.66;5008942;28;19909;-68
2022/10/14 12:56:01;;;;;;;16.33;8.20;;;;;;;19.46;nan;100731.16;4989985;28;20037;-68
2022/10/14 12:58:31;;;;;;;12.85;9.13;;;;;;;19.47;nan;100729.31;4993217;28;20030;-69
2022/10/14 13:01:04;;;;;;;15.07;9.10;;;;;;;19.41;nan;100720.50;4991043;28;20030;-68
2022/10/14 13:03:33;;;;;;;13.00;9.10;;;;;;;19.41;nan;100703.69;4992507;28;20397;-69
2022/10/14 13:06:17;;;;;;;;;;;;;;;19.48;nan;100722.88;4989256;28;20469;-69
2022/10/14 13:09:11;;;;;;;12.98;8.38;;;;;;;19.40;nan;100686.88;4990066;28;19913;-67
2022/10/14 13:11:41;;;;;;;14.88;8.40;;;;;;;19.56;nan;100711.59;4992328;28;20065;-68
2022/10/14 13:14:25;;;;;;;13.68;8.52;;;;;;;19.57;nan;100721.22;4986626;28;20046;-68
2022/10/14 13:16:51;;;;;;;12.15;7.80;;;;;;;19.49;nan;100727.94;5005172;28;20050;-68
2022/10/14 13:19:31;;;;;;;15.87;9.60;;;;;;;19.48;nan;100691.63;4992885;28;20171;-70
2022/10/14 13:21:58;;;;;;;16.40;9.00;;;;;;;19.52;nan;100715.91;4990338;28;20311;-70
2022/10/14 13:24:27;;;;;;;24.05;8.93;;;;;;;;;;4992198;28;20033;-68
2022/10/14 13:26:53;;;;;;;12.52;8.27;;;;;;;19.55;nan;100721.50;4991941;28;20026;-69
2022/10/14 13:29:18;;;;;;;11.30;8.43;;;;;;;19.59;nan;100707.59;4991904;28;20032;-69
2022/10/14 13:32:00;;;;;;;12.02;8.23;;;;;;;19.64;nan;100712.91;4988473;28;20310;-69
2022/10/14 13:34:47;;;;;;;13.55;7.90;;;;;;;19.60;nan;100709.97;4988913;28;20039;-68
2022/10/14 13:37:24;;;;;;;15.57;8.23;;;;;;;19.62;nan;100709.72;4990524;28;20118;-68
2022/10/14 13:39:50;;;;;;;17.05;8.57;;;;;;;;;;4990972;28;20018;-68
2022/10/14 13:42:33;;;;;;;13.70;8.73;;;;;;;19.59;nan;100700.38;4991372;28;20026;-69
2022/10/14 13:45:08;;;;;;;14.05;9.10;;;;;;;19.62;nan;100702.50;4992403;28;20777;-69
2022/10/14 13:47:35;;;;;;;14.15;8.55;;;;;;;19.55;nan;100750.09;4989000;28;20039;-69
2022/10/14 13:50:03;;;;;;;12.32;8.55;;;;;;;19.62;nan;100707.03;4992487;28;20064;-68
2022/10/14 13:52:32;;;;;;;16.83;8.13;;;;;;;19.55;nan;100652.03;4993390;28;20034;-69
2022/10/14 13:55:13;;;;;;;13.35;8.63;;;;;;;19.50;nan;100699.38;4992396;28;20031;-70
2022/10/14 13:57:38;;;;;;;14.23;8.30;;;;;;;19.48;nan;100730.88;4990674;28;20325;-69
2022/10/14 14:00:21;;;;;;;9.88;7.35;;;;;;;19.43;nan;100694.31;4996763;28;20549;-69